Mc Donough, Georgia
Current Conditions -  °F | °C
As of 11:15 PM on Sunday 25 Jan 2015 (Local Time) from K6A2 Reporting Station
Scattered Clouds Scattered Clouds  
Wind Chill: 50°   Ceiling: Unl
Heat Index: 50°   Visibility: 10mi
Dew Point: 41°   Wind: 9mph
Humidity: 71%   Direction: 310°NW
Pressure: 29.77"   Gusts: NA
Location:  33.4528°N, 84.1842°W
Report Text: K6A2 260415Z AUTO 31008KT 10SM SCT070 SCT085 10/05 A2977 RMK AO2
Loading
Personal Weather Stations






























Interactive Weather Map New forecast layout! Learn more

10-Day Weather Forecast

Advertisements
Track Severe Weather on mobile